createdAt,value
2022-11-27T00:01:22.609Z,12.87
2022-11-27T00:03:49.367Z,13.27
2022-11-27T00:06:19.381Z,13.07
2022-11-27T00:08:46.485Z,14.17
2022-11-27T00:11:15.893Z,13.47
2022-11-27T00:13:42.488Z,13.10
2022-11-27T00:16:09.470Z,14.33
2022-11-27T00:18:36.690Z,14.50
2022-11-27T00:21:12.791Z,14.43
2022-11-27T00:23:39.649Z,14.80
2022-11-27T00:26:07.050Z,15.17
2022-11-27T00:28:35.212Z,14.80
2022-11-27T00:31:07.479Z,14.17
2022-11-27T00:33:34.464Z,14.37
2022-11-27T00:36:05.788Z,15.67
2022-11-27T00:38:37.383Z,15.40
2022-11-27T00:41:06.814Z,13.73
2022-11-27T00:43:43.655Z,14.73
2022-11-27T00:46:13.438Z,13.63
2022-11-27T00:48:40.542Z,13.13
2022-11-27T00:51:09.543Z,14.63
2022-11-27T00:53:36.200Z,15.73
2022-11-27T00:56:03.737Z,14.23
2022-11-27T00:58:30.672Z,14.33
2022-11-27T01:00:59.656Z,15.60
2022-11-27T01:03:27.037Z,14.27
2022-11-27T01:05:53.952Z,13.77
2022-11-27T01:08:21.157Z,13.40
2022-11-27T01:10:56.614Z,13.73
2022-11-27T01:13:24.816Z,13.90
2022-11-27T01:16:07.226Z,13.50
2022-11-27T01:18:35.971Z,13.50
2022-11-27T01:21:04.510Z,13.40
2022-11-27T01:23:31.461Z,13.47
2022-11-27T01:26:00.951Z,13.93
2022-11-27T01:28:28.700Z,13.87
2022-11-27T01:30:55.290Z,14.93
2022-11-27T01:33:21.828Z,14.70
2022-11-27T01:35:58.552Z,14.40
2022-11-27T01:38:26.038Z,14.03
2022-11-27T01:41:00.751Z,13.40
2022-11-27T01:43:49.079Z,14.67
2022-11-27T01:46:30.520Z,14.70
2022-11-27T01:49:18.524Z,14.57
2022-11-27T01:51:47.399Z,14.57
2022-11-27T01:54:16.049Z,14.53
2022-11-27T01:56:45.924Z,15.80
2022-11-27T01:59:12.693Z,14.57
2022-11-27T02:01:39.252Z,13.83
2022-11-27T02:04:06.190Z,14.23
2022-11-27T02:06:32.754Z,13.80
2022-11-27T02:08:59.228Z,14.50
2022-11-27T02:11:53.705Z,14.27
2022-11-27T02:14:43.577Z,14.23
2022-11-27T02:17:19.948Z,14.03
2022-11-27T02:20:17.472Z,14.10
2022-11-27T02:22:57.879Z,13.03
2022-11-27T02:25:43.040Z,13.47
2022-11-27T02:28:25.158Z,13.90
2022-11-27T02:31:06.206Z,13.10
2022-11-27T02:33:39.591Z,11.90
2022-11-27T02:36:11.881Z,12.60
2022-11-27T02:38:44.589Z,13.53
2022-11-27T02:41:41.635Z,11.93
2022-11-27T02:44:10.538Z,11.03
2022-11-27T02:46:38.936Z,13.53
2022-11-27T02:49:10.971Z,12.90
2022-11-27T02:51:46.400Z,12.30
2022-11-27T02:54:19.599Z,13.07
2022-11-27T02:56:49.421Z,11.97
2022-11-27T02:59:18.987Z,11.60
2022-11-27T03:01:53.155Z,12.07
2022-11-27T03:04:26.970Z,12.30
2022-11-27T03:06:57.995Z,12.87
2022-11-27T03:09:31.972Z,12.10
2022-11-27T03:11:59.159Z,12.57
2022-11-27T03:14:26.701Z,11.80
2022-11-27T03:17:11.588Z,11.83
2022-11-27T03:19:45.666Z,11.50
2022-11-27T03:22:12.473Z,12.63
2022-11-27T03:24:39.730Z,11.83
2022-11-27T03:27:07.155Z,11.67
2022-11-27T03:29:38.426Z,11.30
2022-11-27T03:32:05.683Z,11.80
2022-11-27T03:34:33.008Z,11.33
2022-11-27T03:37:00.566Z,11.47
2022-11-27T03:39:28.249Z,11.30
2022-11-27T03:42:09.790Z,10.73
2022-11-27T03:44:42.117Z,11.23
2022-11-27T03:47:33.425Z,11.07
2022-11-27T03:50:12.955Z,11.80
2022-11-27T03:52:45.219Z,11.60
2022-11-27T03:55:35.172Z,12.07
2022-11-27T03:58:11.715Z,10.70
2022-11-27T04:00:42.012Z,11.23
2022-11-27T04:03:12.869Z,11.00
2022-11-27T04:05:39.917Z,11.23
2022-11-27T04:08:06.555Z,11.57
2022-11-27T04:10:33.159Z,11.83
2022-11-27T04:12:59.673Z,11.57
2022-11-27T04:15:26.115Z,11.03
2022-11-27T04:17:52.594Z,10.53
2022-11-27T04:20:19.079Z,10.30
2022-11-27T04:22:45.578Z,10.67
2022-11-27T04:25:12.021Z,11.20
2022-11-27T04:27:38.544Z,11.03
2022-11-27T04:30:05.593Z,10.50
2022-11-27T04:32:32.074Z,11.23
2022-11-27T04:34:58.591Z,11.03
2022-11-27T04:37:25.047Z,12.40
2022-11-27T04:39:51.532Z,11.00
2022-11-27T04:42:18.027Z,11.10
2022-11-27T04:44:44.477Z,10.47
2022-11-27T04:47:10.971Z,9.90
2022-11-27T04:49:37.520Z,9.67
2022-11-27T04:52:04.468Z,10.77
2022-11-27T04:54:30.911Z,11.37
2022-11-27T04:56:57.370Z,10.40
2022-11-27T04:59:23.854Z,10.57
2022-11-27T05:01:50.531Z,10.37
2022-11-27T05:04:17.079Z,10.33
2022-11-27T05:06:43.680Z,10.77
2022-11-27T05:09:10.116Z,11.57
2022-11-27T05:11:36.776Z,10.93
2022-11-27T05:14:16.755Z,11.20
2022-11-27T05:16:51.614Z,11.77
2022-11-27T05:19:20.174Z,11.13
2022-11-27T05:21:47.821Z,11.60
2022-11-27T05:24:16.100Z,11.43
2022-11-27T05:26:43.991Z,11.43
2022-11-27T05:29:11.048Z,11.10
2022-11-27T05:31:38.323Z,12.13
2022-11-27T05:34:05.165Z,11.87
2022-11-27T05:36:33.459Z,11.87
2022-11-27T05:39:02.857Z,11.80
2022-11-27T05:41:30.009Z,11.50
2022-11-27T05:43:56.467Z,10.80
2022-11-27T05:46:23.533Z,9.77
2022-11-27T05:48:50.413Z,10.93
2022-11-27T05:51:17.857Z,11.70
2022-11-27T05:53:44.703Z,11.03
2022-11-27T05:56:14.146Z,11.00
2022-11-27T05:58:42.109Z,11.33
2022-11-27T06:01:09.547Z,11.00
2022-11-27T06:03:38.996Z,11.13
2022-11-27T06:06:08.106Z,11.47
2022-11-27T06:08:37.133Z,12.10
2022-11-27T06:11:08.704Z,10.03
2022-11-27T06:13:35.708Z,11.43
2022-11-27T06:16:12.147Z,10.80
2022-11-27T06:18:39.238Z,10.83
2022-11-27T06:21:08.447Z,11.67
2022-11-27T06:23:35.895Z,11.67
2022-11-27T06:26:15.585Z,11.30
2022-11-27T06:28:42.279Z,10.77
2022-11-27T06:31:18.062Z,11.77
2022-11-27T06:33:45.877Z,10.97
2022-11-27T06:36:12.333Z,10.97
2022-11-27T06:38:39.138Z,11.33
2022-11-27T06:41:14.364Z,11.83
2022-11-27T06:43:41.197Z,12.57
2022-11-27T06:46:12.221Z,12.37
2022-11-27T06:48:38.688Z,11.50
2022-11-27T06:51:07.746Z,12.27
2022-11-27T06:53:36.721Z,11.53
2022-11-27T06:56:08.928Z,10.73
2022-11-27T06:58:36.890Z,11.07
2022-11-27T07:01:09.841Z,10.70
2022-11-27T07:03:36.752Z,11.57
2022-11-27T07:06:05.229Z,11.07
2022-11-27T07:08:32.376Z,10.60
2022-11-27T07:11:04.130Z,10.50
2022-11-27T07:13:31.344Z,10.90
2022-11-27T07:16:02.340Z,11.60
2022-11-27T07:18:30.433Z,10.23
2022-11-27T07:20:57.066Z,11.00
2022-11-27T07:23:23.500Z,10.73
2022-11-27T07:25:49.997Z,11.10
2022-11-27T07:28:19.061Z,10.57
2022-11-27T07:30:46.227Z,10.33
2022-11-27T07:33:12.659Z,10.60
2022-11-27T07:35:39.161Z,10.87
2022-11-27T07:38:05.750Z,10.40
2022-11-27T07:40:32.216Z,11.30
2022-11-27T07:42:58.964Z,10.30
2022-11-27T07:45:25.515Z,10.40
2022-11-27T07:47:52.013Z,10.90
2022-11-27T07:50:18.723Z,10.43
2022-11-27T07:52:45.295Z,9.97
2022-11-27T07:55:11.841Z,10.00
2022-11-27T07:57:38.707Z,9.20
2022-11-27T08:00:06.796Z,10.10
2022-11-27T08:02:33.931Z,9.30
2022-11-27T08:05:00.513Z,9.37
2022-11-27T08:07:30.699Z,9.23
2022-11-27T08:10:00.051Z,10.03
2022-11-27T08:12:27.426Z,9.43
2022-11-27T08:14:53.880Z,11.70
2022-11-27T08:17:20.424Z,9.90
2022-11-27T08:19:46.944Z,9.30
2022-11-27T08:22:15.744Z,9.27
2022-11-27T08:24:42.887Z,9.57
2022-11-27T08:27:10.418Z,9.63
2022-11-27T08:29:40.053Z,9.53
2022-11-27T08:32:06.941Z,9.00
2022-11-27T08:34:33.748Z,9.03
2022-11-27T08:37:00.253Z,8.77
2022-11-27T08:39:27.382Z,8.73
2022-11-27T08:41:54.346Z,7.93
2022-11-27T08:44:20.947Z,8.00
2022-11-27T08:46:47.506Z,7.93
2022-11-27T08:49:14.172Z,8.03
2022-11-27T08:51:40.693Z,8.50
2022-11-27T08:54:07.677Z,7.93
2022-11-27T08:56:34.485Z,7.90
2022-11-27T08:59:01.020Z,7.57
2022-11-27T09:01:30.422Z,7.90
2022-11-27T09:03:57.162Z,7.73
2022-11-27T09:06:25.872Z,7.93
2022-11-27T09:08:52.406Z,7.73
2022-11-27T09:11:20.302Z,8.10
2022-11-27T09:13:47.248Z,7.93
2022-11-27T09:16:16.752Z,8.33
2022-11-27T09:18:47.500Z,7.80
2022-11-27T09:21:16.206Z,8.33
2022-11-27T09:23:43.177Z,8.00
2022-11-27T09:26:12.587Z,8.60
2022-11-27T09:28:40.707Z,7.90
2022-11-27T09:31:10.081Z,8.37
2022-11-27T09:33:38.507Z,8.37
2022-11-27T09:36:10.312Z,8.47
2022-11-27T09:38:37.621Z,8.60
2022-11-27T09:41:35.692Z,8.70
2022-11-27T09:44:11.415Z,8.03
2022-11-27T09:46:41.188Z,8.37
2022-11-27T09:49:22.400Z,7.60
2022-11-27T09:51:54.915Z,7.57
2022-11-27T09:54:27.663Z,7.43
2022-11-27T09:56:55.914Z,7.97
2022-11-27T09:59:28.877Z,7.93
2022-11-27T10:01:55.553Z,7.93
2022-11-27T10:04:22.266Z,8.20
2022-11-27T10:07:07.485Z,7.97
2022-11-27T10:09:52.701Z,7.63
2022-11-27T10:12:26.442Z,8.30
2022-11-27T10:15:04.333Z,8.07
2022-11-27T10:17:39.263Z,7.90
2022-11-27T10:20:32.157Z,7.10
2022-11-27T10:23:36.232Z,7.43
2022-11-27T10:26:10.955Z,7.80
2022-11-27T10:28:46.130Z,7.30
2022-11-27T10:31:15.991Z,7.43
2022-11-27T10:33:49.852Z,7.83
2022-11-27T10:36:29.944Z,7.33
2022-11-27T10:39:00.082Z,7.57
2022-11-27T10:41:50.459Z,7.73
2022-11-27T10:44:30.080Z,7.60
2022-11-27T10:47:03.043Z,7.27
2022-11-27T10:49:30.212Z,7.63
2022-11-27T10:51:56.857Z,7.40
2022-11-27T10:54:27.628Z,7.60
2022-11-27T10:57:12.135Z,7.20
2022-11-27T11:00:08.032Z,7.23
2022-11-27T11:02:40.594Z,7.30
2022-11-27T11:05:40.982Z,7.70
2022-11-27T11:08:19.400Z,7.10
2022-11-27T11:10:53.985Z,7.30
2022-11-27T11:13:29.393Z,6.93
2022-11-27T11:16:09.715Z,7.43
2022-11-27T11:18:46.364Z,8.27
2022-11-27T11:21:17.050Z,7.53
2022-11-27T11:23:46.345Z,8.10
2022-11-27T11:26:25.729Z,7.93
2022-11-27T11:28:55.000Z,8.03
2022-11-27T11:31:27.905Z,7.03
2022-11-27T11:34:22.487Z,6.93
2022-11-27T11:37:08.605Z,6.00
2022-11-27T11:39:45.854Z,6.07
2022-11-27T11:42:21.505Z,6.40
2022-11-27T11:44:53.843Z,7.20
2022-11-27T11:47:26.573Z,7.30
2022-11-27T11:49:56.013Z,7.67
2022-11-27T11:52:47.273Z,6.10
2022-11-27T11:55:20.228Z,6.40
2022-11-27T11:58:28.111Z,6.90
2022-11-27T12:01:26.058Z,5.77
2022-11-27T12:04:31.354Z,5.87
2022-11-27T12:07:20.944Z,6.47
2022-11-27T12:09:57.175Z,6.00
2022-11-27T12:12:42.188Z,5.40
2022-11-27T12:15:28.876Z,5.60
2022-11-27T12:18:09.744Z,6.07
2022-11-27T12:20:48.019Z,6.00
2022-11-27T12:23:55.555Z,5.53
2022-11-27T12:27:07.168Z,5.17
2022-11-27T12:29:45.690Z,5.00
2022-11-27T12:32:27.786Z,5.23
2022-11-27T12:35:21.434Z,7.27
2022-11-27T12:38:25.391Z,6.97
2022-11-27T12:41:33.866Z,6.90
2022-11-27T12:44:00.779Z,5.80
2022-11-27T12:46:43.417Z,5.50
2022-11-27T12:49:25.733Z,7.53
2022-11-27T12:52:03.118Z,7.63
2022-11-27T12:54:37.077Z,6.80
2022-11-27T12:57:14.508Z,5.23
2022-11-27T13:00:05.605Z,5.30
2022-11-27T13:02:41.377Z,6.50
2022-11-27T13:05:22.593Z,5.60
2022-11-27T13:08:02.371Z,5.07
2022-11-27T13:11:03.935Z,4.60
2022-11-27T13:13:43.171Z,4.50
2022-11-27T13:16:27.443Z,4.90
2022-11-27T13:19:18.940Z,4.73
2022-11-27T13:21:47.548Z,3.77
2022-11-27T13:24:14.708Z,4.10
2022-11-27T13:27:18.324Z,3.73
2022-11-27T13:29:55.108Z,4.10
2022-11-27T13:32:23.581Z,4.27
2022-11-27T13:34:51.885Z,3.40
2022-11-27T13:37:30.775Z,3.77
2022-11-27T13:40:05.598Z,3.80
2022-11-27T13:42:36.162Z,4.30
2022-11-27T13:45:11.219Z,4.33
2022-11-27T13:47:43.354Z,4.17
2022-11-27T13:50:13.843Z,3.33
2022-11-27T13:53:05.831Z,3.70
2022-11-27T13:55:38.738Z,3.33
2022-11-27T13:58:07.142Z,3.80
2022-11-27T14:00:38.182Z,4.67
2022-11-27T14:03:06.804Z,3.53
2022-11-27T14:05:42.580Z,3.80
2022-11-27T14:08:20.519Z,3.37
2022-11-27T14:10:51.365Z,3.60
2022-11-27T14:13:21.425Z,3.77
2022-11-27T14:16:02.190Z,3.83
2022-11-27T14:18:30.589Z,4.17
2022-11-27T14:21:03.067Z,3.50
2022-11-27T14:23:34.142Z,4.47
2022-11-27T14:26:05.232Z,4.60
2022-11-27T14:28:36.340Z,5.13
2022-11-27T14:31:03.592Z,4.47
2022-11-27T14:33:47.569Z,4.20
2022-11-27T14:36:26.073Z,4.07
2022-11-27T14:38:53.208Z,4.20
2022-11-27T14:41:25.462Z,3.60
2022-11-27T14:44:05.937Z,3.47
2022-11-27T14:46:35.400Z,3.90
2022-11-27T14:49:02.508Z,3.77
2022-11-27T14:51:32.875Z,3.60
2022-11-27T14:54:02.128Z,3.20
2022-11-27T14:56:32.376Z,3.67
2022-11-27T14:59:00.138Z,3.30
2022-11-27T15:01:32.767Z,3.60
2022-11-27T15:04:01.951Z,2.90
2022-11-27T15:06:35.066Z,3.17
2022-11-27T15:09:30.893Z,3.60
2022-11-27T15:11:56.910Z,3.60
2022-11-27T15:14:28.693Z,4.27
2022-11-27T15:16:55.551Z,4.87
2022-11-27T15:19:35.374Z,4.77
2022-11-27T15:22:02.693Z,4.67
2022-11-27T15:24:31.260Z,4.80
2022-11-27T15:27:15.856Z,4.20
2022-11-27T15:29:59.967Z,4.70
2022-11-27T15:32:45.699Z,5.30
2022-11-27T15:35:14.485Z,4.87
2022-11-27T15:37:41.258Z,4.90
2022-11-27T15:40:24.064Z,4.70
2022-11-27T15:42:50.516Z,5.07
2022-11-27T15:45:17.515Z,5.10
2022-11-27T15:47:44.511Z,4.57
2022-11-27T15:50:16.045Z,4.63
2022-11-27T15:52:42.741Z,4.33
2022-11-27T15:55:15.855Z,4.00
2022-11-27T15:57:43.132Z,4.07
2022-11-27T16:00:10.715Z,4.77
2022-11-27T16:02:40.457Z,4.07
2022-11-27T16:05:08.208Z,4.70
2022-11-27T16:07:35.274Z,4.70
2022-11-27T16:10:02.289Z,4.93
2022-11-27T16:12:28.770Z,6.77
2022-11-27T16:14:55.271Z,7.10
2022-11-27T16:17:21.749Z,7.77
2022-11-27T16:19:48.271Z,5.67
2022-11-27T16:22:14.821Z,4.83
2022-11-27T16:24:41.864Z,4.40
2022-11-27T16:27:08.524Z,4.50
2022-11-27T16:29:35.548Z,4.07
2022-11-27T16:32:02.692Z,3.90
2022-11-27T16:34:29.320Z,4.60
2022-11-27T16:36:55.773Z,4.10
2022-11-27T16:39:23.938Z,4.63
2022-11-27T16:41:50.932Z,4.40
2022-11-27T16:44:19.095Z,4.30
2022-11-27T16:46:45.955Z,5.07
2022-11-27T16:49:13.281Z,4.10
2022-11-27T16:51:41.407Z,4.90
2022-11-27T16:54:12.234Z,4.93
2022-11-27T16:56:41.338Z,4.60
2022-11-27T16:59:13.200Z,4.70
2022-11-27T17:01:41.658Z,4.13
2022-11-27T17:04:14.234Z,4.17
2022-11-27T17:06:40.776Z,4.57
2022-11-27T17:09:08.531Z,5.07
2022-11-27T17:11:37.285Z,4.87
2022-11-27T17:14:07.433Z,4.30
2022-11-27T17:16:36.372Z,4.70
2022-11-27T17:19:03.874Z,5.50
2022-11-27T17:21:33.680Z,5.60
2022-11-27T17:24:02.986Z,4.70
2022-11-27T17:26:35.611Z,4.60
2022-11-27T17:29:03.540Z,4.57
2022-11-27T17:31:37.028Z,4.40
2022-11-27T17:34:06.089Z,4.37
2022-11-27T17:36:37.321Z,4.30
2022-11-27T17:39:06.412Z,4.47
2022-11-27T17:41:33.798Z,4.60
2022-11-27T17:44:00.609Z,4.53
2022-11-27T17:46:28.922Z,5.33
2022-11-27T17:48:58.977Z,4.47
2022-11-27T17:51:26.356Z,4.57
2022-11-27T17:53:52.921Z,4.43
2022-11-27T17:56:20.899Z,5.03
2022-11-27T17:58:49.082Z,5.23
2022-11-27T18:01:22.008Z,5.37
2022-11-27T18:03:50.750Z,5.50
2022-11-27T18:06:19.643Z,4.80
2022-11-27T18:08:47.403Z,5.37
2022-11-27T18:11:21.149Z,6.10
2022-11-27T18:13:49.118Z,5.40
2022-11-27T18:16:28.905Z,5.17
2022-11-27T18:18:56.736Z,5.60
2022-11-27T18:21:24.414Z,5.00
2022-11-27T18:24:22.144Z,4.90
2022-11-27T18:27:06.572Z,4.57
2022-11-27T18:29:27.548Z,4.30
2022-11-27T18:31:54.126Z,4.50
2022-11-27T18:34:20.746Z,4.33
2022-11-27T18:36:47.218Z,3.30
2022-11-27T18:39:13.716Z,3.33
2022-11-27T18:41:40.735Z,4.10
2022-11-27T18:44:08.193Z,4.03
2022-11-27T18:46:35.135Z,4.53
2022-11-27T18:49:02.323Z,4.30
2022-11-27T18:51:29.022Z,3.10
2022-11-27T18:53:57.211Z,2.97
2022-11-27T18:56:30.351Z,3.90
2022-11-27T18:59:03.372Z,3.83
2022-11-27T19:01:36.727Z,4.10
2022-11-27T19:04:07.223Z,4.40
2022-11-27T19:06:35.826Z,3.70
2022-11-27T19:09:02.398Z,4.00
2022-11-27T19:11:30.806Z,4.13
2022-11-27T19:13:57.800Z,4.50
2022-11-27T19:16:27.352Z,4.37
2022-11-27T19:18:57.185Z,4.30
2022-11-27T19:21:26.042Z,4.10
2022-11-27T19:23:56.429Z,3.43
2022-11-27T19:26:26.093Z,3.90
2022-11-27T19:28:58.804Z,4.30
2022-11-27T19:31:26.216Z,4.00
2022-11-27T19:34:01.318Z,4.20
2022-11-27T19:36:30.210Z,4.00
2022-11-27T19:38:59.860Z,4.03
2022-11-27T19:41:26.871Z,4.20
2022-11-27T19:44:04.878Z,4.03
2022-11-27T19:46:35.046Z,4.17
2022-11-27T19:49:09.134Z,4.17
2022-11-27T19:51:37.530Z,4.00
2022-11-27T19:54:10.001Z,4.00
2022-11-27T19:56:39.850Z,4.23
2022-11-27T19:59:07.133Z,4.47
2022-11-27T20:01:34.103Z,4.60
2022-11-27T20:04:02.040Z,4.73
2022-11-27T20:06:28.582Z,4.70
2022-11-27T20:09:00.788Z,4.83
2022-11-27T20:11:34.281Z,4.70
2022-11-27T20:14:05.011Z,4.77
2022-11-27T20:16:34.287Z,4.70
2022-11-27T20:19:02.775Z,4.10
2022-11-27T20:21:29.287Z,4.50
2022-11-27T20:23:57.568Z,4.40
2022-11-27T20:26:26.351Z,4.43
2022-11-27T20:28:54.130Z,4.97
2022-11-27T20:31:43.647Z,5.00
2022-11-27T20:34:18.137Z,4.63
2022-11-27T20:36:44.719Z,4.93
2022-11-27T20:39:19.273Z,5.30
2022-11-27T20:41:47.321Z,4.60
2022-11-27T20:44:13.843Z,4.03
2022-11-27T20:46:40.359Z,4.30
2022-11-27T20:49:07.151Z,4.40
2022-11-27T20:51:34.253Z,4.40
2022-11-27T20:54:09.294Z,4.10
2022-11-27T20:56:36.250Z,4.00
2022-11-27T20:59:05.171Z,4.07
2022-11-27T21:01:34.210Z,4.50
2022-11-27T21:04:04.386Z,4.60
2022-11-27T21:06:32.714Z,4.47
2022-11-27T21:09:03.428Z,3.87
2022-11-27T21:11:32.063Z,4.00
2022-11-27T21:14:05.961Z,4.00
2022-11-27T21:16:35.367Z,3.20
2022-11-27T21:19:05.639Z,3.30
2022-11-27T21:21:32.749Z,3.50
2022-11-27T21:24:00.179Z,3.30
2022-11-27T21:26:28.543Z,3.40
2022-11-27T21:28:56.173Z,3.67
2022-11-27T21:31:25.424Z,4.13
2022-11-27T21:33:54.545Z,3.70
2022-11-27T21:36:25.650Z,3.33
2022-11-27T21:38:52.737Z,3.30
2022-11-27T21:41:20.606Z,3.33
2022-11-27T21:43:48.817Z,3.70
2022-11-27T21:46:20.386Z,3.60
2022-11-27T21:48:48.461Z,4.10
2022-11-27T21:51:15.893Z,3.80
2022-11-27T21:53:44.099Z,3.90
2022-11-27T21:56:13.377Z,3.50
2022-11-27T21:58:40.489Z,3.57
2022-11-27T22:01:12.766Z,3.97
2022-11-27T22:03:42.480Z,3.87
2022-11-27T22:06:15.046Z,3.70
2022-11-27T22:08:44.029Z,3.23
2022-11-27T22:11:13.664Z,3.30
2022-11-27T22:13:41.560Z,4.10
2022-11-27T22:16:13.267Z,3.50
2022-11-27T22:18:40.525Z,3.57
2022-11-27T22:21:10.423Z,3.40
2022-11-27T22:23:38.091Z,3.67
2022-11-27T22:26:07.456Z,3.77
2022-11-27T22:28:35.948Z,3.83
2022-11-27T22:31:21.690Z,3.73
2022-11-27T22:33:48.975Z,4.93
2022-11-27T22:36:17.196Z,4.57
2022-11-27T22:38:45.490Z,3.80
2022-11-27T22:41:13.598Z,4.67
2022-11-27T22:43:40.784Z,4.40
2022-11-27T22:46:17.203Z,5.03
2022-11-27T22:48:44.537Z,4.43
2022-11-27T22:51:11.577Z,4.97
2022-11-27T22:53:38.533Z,5.30
2022-11-27T22:56:09.513Z,5.47
2022-11-27T22:58:41.163Z,5.03
2022-11-27T23:01:13.879Z,5.27
2022-11-27T23:03:40.619Z,4.40
2022-11-27T23:06:12.862Z,4.53
2022-11-27T23:08:44.800Z,5.10
2022-11-27T23:11:15.786Z,5.47
2022-11-27T23:13:48.002Z,7.93
2022-11-27T23:16:16.693Z,6.27
2022-11-27T23:18:43.287Z,5.10
2022-11-27T23:21:38.462Z,5.07
2022-11-27T23:24:06.805Z,5.57
2022-11-27T23:26:33.496Z,5.40
2022-11-27T23:29:00.030Z,5.50
2022-11-27T23:31:30.725Z,5.47
2022-11-27T23:33:59.249Z,5.57
2022-11-27T23:36:25.758Z,5.60
2022-11-27T23:38:52.369Z,5.83
2022-11-27T23:41:21.467Z,5.40
2022-11-27T23:43:48.792Z,5.50
2022-11-27T23:46:18.413Z,6.07
2022-11-27T23:48:45.075Z,5.80
2022-11-27T23:51:14.419Z,6.13
2022-11-27T23:53:41.084Z,6.63
2022-11-27T23:56:10.288Z,6.97
2022-11-27T23:58:36.929Z,6.50
